Time;durP1;ratioP1;P1;durP2;ratioP2;P2;SDS_P1;SDS_P2;PMS_P1;PMS_P2;Temp;Humidity;BMP_temperature;BMP_pressure;BME280_temperature;BME280_humidity;BME280_pressure;Samples;Min_cycle;Max_cycle;Signal;HPM_P1;HPM_P2
2023/11/27 00:00:26;;;;;;;1.40;0.90;;;19.60;41.00;;;;;;5000541;28;20533;-58
2023/11/27 00:02:52;;;;;;;3.83;1.08;;;19.40;40.90;;;;;;4994547;28;20125;-61
2023/11/27 00:05:19;;;;;;;4.68;1.08;;;19.40;41.30;;;;;;4999420;28;20036;-63
2023/11/27 00:07:46;;;;;;;4.03;1.00;;;19.40;40.80;;;;;;4999431;28;20048;-62
2023/11/27 00:10:12;;;;;;;6.63;2.42;;;19.40;40.90;;;;;;5001114;28;20048;-62
2023/11/27 00:12:39;;;;;;;5.85;2.00;;;19.30;40.90;;;;;;5003732;28;20039;-63
2023/11/27 00:15:07;;;;;;;7.55;2.35;;;19.30;41.40;;;;;;5001386;28;20045;-61
2023/11/27 00:17:33;;;;;;;6.47;2.40;;;19.30;41.10;;;;;;5000487;28;20130;-62
2023/11/27 00:20:00;;;;;;;4.47;2.38;;;19.20;41.40;;;;;;5001205;28;20053;-63
2023/11/27 00:22:27;;;;;;;6.15;2.55;;;19.10;41.00;;;;;;4998015;28;20077;-66
2023/11/27 00:24:54;;;;;;;10.18;3.03;;;19.10;41.60;;;;;;5001721;28;20092;-63
2023/11/27 00:27:21;;;;;;;7.20;4.57;;;19.10;42.20;;;;;;5002153;28;20053;-65
2023/11/27 00:29:47;;;;;;;14.85;7.25;;;19.00;42.60;;;;;;5000535;28;20423;-64
2023/11/27 00:32:14;;;;;;;15.98;5.72;;;18.90;42.70;;;;;;5000185;28;20047;-61
2023/11/27 00:34:41;;;;;;;10.85;5.10;;;18.90;43.00;;;;;;5002027;28;20044;-61
2023/11/27 00:37:07;;;;;;;10.88;5.55;;;18.80;43.80;;;;;;4998477;28;20068;-62
2023/11/27 00:39:33;;;;;;;18.73;6.20;;;18.80;43.60;;;;;;4998076;28;20044;-62
2023/11/27 00:42:00;;;;;;;9.05;3.42;;;18.70;43.30;;;;;;5001734;28;20054;-63
2023/11/27 00:44:26;;;;;;;11.43;4.38;;;18.70;43.00;;;;;;4997586;28;20073;-62
2023/11/27 00:46:53;;;;;;;17.15;5.45;;;18.70;42.90;;;;;;5002360;28;20477;-62
2023/11/27 00:49:20;;;;;;;12.95;5.40;;;18.60;43.30;;;;;;4997230;28;20058;-62
2023/11/27 00:51:46;;;;;;;18.25;4.55;;;18.60;43.60;;;;;;4996550;28;20398;-63
2023/11/27 00:54:13;;;;;;;11.95;4.55;;;18.60;44.20;;;;;;4998108;28;20054;-62
2023/11/27 00:56:40;;;;;;;11.43;4.13;;;18.60;44.70;;;;;;4997939;28;20051;-61
2023/11/27 00:59:07;;;;;;;19.25;4.65;;;18.60;45.10;;;;;;4995894;28;20146;-63
2023/11/27 01:01:34;;;;;;;19.10;6.97;;;18.60;45.40;;;;;;4998157;28;20050;-64
2023/11/27 01:04:00;;;;;;;20.17;7.88;;;18.50;45.60;;;;;;4993976;28;20059;-62
2023/11/27 01:06:27;;;;;;;15.63;7.40;;;18.50;45.70;;;;;;4999249;28;20045;-62
2023/11/27 01:08:54;;;;;;;17.67;6.45;;;18.50;45.90;;;;;;4998200;28;20446;-61
2023/11/27 01:11:22;;;;;;;11.20;5.05;;;18.50;46.00;;;;;;4998552;28;20171;-61
2023/11/27 01:13:49;;;;;;;13.90;4.00;;;18.50;46.00;;;;;;4994830;28;20055;-62
2023/11/27 01:16:15;;;;;;;10.88;2.85;;;18.40;46.20;;;;;;4997309;28;20051;-62
2023/11/27 01:18:42;;;;;;;10.27;2.58;;;18.40;46.40;;;;;;4998682;28;20609;-62
2023/11/27 01:21:09;;;;;;;5.28;1.98;;;18.40;46.60;;;;;;5006274;28;20089;-60
2023/11/27 01:23:36;;;;;;;12.20;3.05;;;18.30;46.40;;;;;;5006519;28;20094;-65
2023/11/27 01:26:02;;;;;;;13.40;3.05;;;18.30;46.60;;;;;;4995814;28;20053;-63
2023/11/27 01:28:29;;;;;;;10.50;3.78;;;18.30;46.90;;;;;;4992675;28;20047;-60
2023/11/27 01:30:56;;;;;;;8.02;4.82;;;18.30;47.10;;;;;;4997963;28;20050;-63
2023/11/27 01:33:23;;;;;;;8.00;4.88;;;18.20;47.30;;;;;;4996969;28;20423;-62
2023/11/27 01:35:49;;;;;;;9.85;5.50;;;18.20;47.30;;;;;;4995811;28;20390;-61
2023/11/27 01:38:16;;;;;;;13.20;5.10;;;18.20;47.00;;;;;;4997820;28;20583;-61
2023/11/27 01:40:42;;;;;;;9.63;4.50;;;18.20;47.20;;;;;;5003142;28;20068;-62
2023/11/27 01:43:14;;;;;;;6.97;4.07;;;18.10;46.80;;;;;;4994121;28;20066;-63
2023/11/27 01:45:42;;;;;;;6.78;3.67;;;18.10;46.60;;;;;;4997934;28;20122;-63
2023/11/27 01:48:10;;;;;;;8.15;3.80;;;18.10;46.50;;;;;;4994311;28;20057;-64
2023/11/27 01:50:37;;;;;;;9.07;3.80;;;18.10;46.40;;;;;;4995739;28;20138;-64
2023/11/27 01:53:04;;;;;;;10.07;3.50;;;18.10;46.40;;;;;;5004551;28;20050;-65
2023/11/27 01:55:30;;;;;;;8.63;3.92;;;18.10;46.50;;;;;;4997037;28;20043;-62
2023/11/27 01:57:57;;;;;;;11.55;3.80;;;18.00;47.00;;;;;;4999365;28;20065;-62
2023/11/27 02:00:24;;;;;;;16.10;4.32;;;18.00;46.60;;;;;;5000665;28;20517;-62
2023/11/27 02:02:51;;;;;;;9.80;3.50;;;18.00;46.70;;;;;;4993642;28;20078;-62
2023/11/27 02:05:18;;;;;;;9.77;3.75;;;17.90;46.70;;;;;;4996036;28;20052;-63
2023/11/27 02:07:44;;;;;;;10.13;3.28;;;17.90;46.80;;;;;;4995125;28;20519;-61
2023/11/27 02:10:11;;;;;;;13.73;3.05;;;17.90;46.80;;;;;;4997183;28;20046;-64
2023/11/27 02:12:38;;;;;;;10.52;3.10;;;17.90;46.60;;;;;;4996318;28;20039;-63
2023/11/27 02:15:05;;;;;;;8.32;2.63;;;17.80;46.50;;;;;;4996476;28;20470;-62
2023/11/27 02:17:31;;;;;;;3.05;2.00;;;17.80;46.40;;;;;;5001728;28;20300;-60
2023/11/27 02:19:58;;;;;;;9.23;2.17;;;17.80;46.30;;;;;;4990501;28;20073;-62
2023/11/27 02:22:24;;;;;;;5.28;1.88;;;17.80;46.50;;;;;;4995854;28;20492;-63
2023/11/27 02:24:51;;;;;;;12.38;4.85;;;17.80;46.50;;;;;;4997341;28;20459;-62
2023/11/27 02:27:17;;;;;;;5.05;4.38;;;17.80;46.40;;;;;;4995340;28;20072;-65
2023/11/27 02:29:44;;;;;;;2.75;1.42;;;17.70;46.70;;;;;;4995965;28;20097;-59
2023/11/27 02:32:10;;;;;;;5.28;1.60;;;17.70;46.70;;;;;;4999196;28;20121;-57
2023/11/27 02:34:37;;;;;;;4.07;1.80;;;17.80;47.00;;;;;;4994358;28;20101;-56
2023/11/27 02:37:04;;;;;;;7.85;1.50;;;17.70;47.10;;;;;;4997819;28;20057;-56
2023/11/27 02:39:30;;;;;;;6.10;1.88;;;17.80;47.50;;;;;;5001683;28;20061;-63
2023/11/27 02:41:57;;;;;;;7.50;2.03;;;17.90;47.70;;;;;;4996193;28;20047;-67
2023/11/27 02:44:24;;;;;;;12.30;2.05;;;18.00;47.90;;;;;;4997516;28;20886;-56
2023/11/27 02:46:50;;;;;;;4.20;1.90;;;18.20;47.90;;;;;;4994291;28;20096;-63
2023/11/27 02:49:17;;;;;;;5.82;1.80;;;18.30;48.10;;;;;;4996384;28;20093;-66
2023/11/27 02:51:43;;;;;;;7.82;1.75;;;18.40;48.00;;;;;;4996349;28;20501;-62
2023/11/27 02:54:10;;;;;;;5.30;1.73;;;18.40;48.20;;;;;;4996462;28;20050;-65
2023/11/27 02:56:36;;;;;;;6.40;2.08;;;18.40;48.10;;;;;;4994190;28;20057;-65
2023/11/27 02:59:03;;;;;;;13.65;2.08;;;18.40;48.20;;;;;;4988571;28;20058;-67
2023/11/27 03:01:29;;;;;;;5.75;1.83;;;18.40;48.50;;;;;;4994471;28;20054;-65
2023/11/27 03:03:56;;;;;;;6.75;1.55;;;18.40;48.80;;;;;;4992181;28;20513;-62
2023/11/27 03:06:23;;;;;;;5.15;1.73;;;18.30;48.70;;;;;;4992946;28;20054;-64
2023/11/27 03:08:49;;;;;;;8.82;1.70;;;18.30;49.00;;;;;;4990112;28;20075;-64
2023/11/27 03:11:16;;;;;;;7.32;1.55;;;18.20;49.30;;;;;;4993901;28;20074;-66
2023/11/27 03:13:43;;;;;;;6.75;1.85;;;18.20;49.70;;;;;;4991993;28;20586;-62
2023/11/27 03:16:09;;;;;;;9.38;1.90;;;18.10;50.20;;;;;;4993355;28;20062;-63
2023/11/27 03:18:36;;;;;;;7.47;1.88;;;18.10;50.10;;;;;;4991786;28;20101;-64
2023/11/27 03:21:04;;;;;;;8.40;1.70;;;17.90;50.30;;;;;;4993037;28;20064;-65
2023/11/27 03:23:31;;;;;;;13.82;1.95;;;17.90;50.40;;;;;;4989919;28;20087;-64
2023/11/27 03:26:00;;;;;;;6.68;2.08;;;17.80;50.50;;;;;;4992243;28;20528;-62
2023/11/27 03:28:27;;;;;;;11.50;2.08;;;17.70;50.50;;;;;;4996426;28;20054;-64
2023/11/27 03:30:54;;;;;;;12.85;3.30;;;17.70;50.40;;;;;;4994357;28;20046;-61
2023/11/27 03:33:20;;;;;;;11.40;3.88;;;17.70;50.60;;;;;;4993984;28;20057;-66
2023/11/27 03:35:47;;;;;;;15.25;4.50;;;17.60;51.00;;;;;;4997198;28;20054;-63
2023/11/27 03:38:13;;;;;;;15.57;5.13;;;17.60;51.00;;;;;;4992391;28;20052;-65
2023/11/27 03:40:40;;;;;;;13.85;5.40;;;17.50;51.80;;;;;;4986541;28;20055;-69
2023/11/27 03:43:06;;;;;;;14.70;4.18;;;17.50;51.80;;;;;;4989027;28;20587;-64
2023/11/27 03:45:33;;;;;;;11.75;4.47;;;17.40;52.10;;;;;;4994182;28;20301;-70
2023/11/27 03:47:59;;;;;;;13.60;4.20;;;17.40;52.20;;;;;;4987488;28;20057;-63
2023/11/27 03:50:26;;;;;;;18.75;3.97;;;17.40;52.30;;;;;;4991066;28;20048;-65
2023/11/27 03:52:54;;;;;;;13.05;4.22;;;17.30;52.90;;;;;;4990536;28;20520;-64
2023/11/27 03:55:20;;;;;;;30.05;18.27;;;17.30;52.50;;;;;;4996071;28;21585;-64
2023/11/27 03:57:47;;;;;;;29.60;17.02;;;17.30;53.40;;;;;;4991920;28;20053;-64
2023/11/27 04:00:14;;;;;;;15.50;3.67;;;17.30;53.20;;;;;;4995842;28;20126;-66
2023/11/27 04:02:41;;;;;;;15.55;3.58;;;17.20;52.50;;;;;;4989763;28;20505;-66
2023/11/27 04:05:07;;;;;;;15.63;3.72;;;17.20;52.50;;;;;;4992553;28;20047;-64
2023/11/27 04:07:34;;;;;;;11.90;4.10;;;17.20;52.60;;;;;;4992919;28;20046;-63
2023/11/27 04:10:01;;;;;;;11.43;4.00;;;17.20;52.80;;;;;;4992718;28;20056;-64
2023/11/27 04:12:32;;;;;;;20.25;4.25;;;17.20;53.10;;;;;;4995524;28;20506;-66
2023/11/27 04:15:04;;;;;;;13.48;4.68;;;17.10;53.20;;;;;;4996381;28;20066;-65
2023/11/27 04:17:30;;;;;;;20.40;4.78;;;17.00;53.20;;;;;;4993058;28;20055;-64
2023/11/27 04:19:57;;;;;;;13.18;4.43;;;17.00;53.40;;;;;;4991285;28;20103;-67
2023/11/27 04:22:24;;;;;;;18.95;5.43;;;17.00;53.40;;;;;;4994813;28;20132;-64
2023/11/27 04:24:52;;;;;;;20.42;5.80;;;17.00;53.90;;;;;;4995120;28;20554;-66
2023/11/27 04:27:18;;;;;;;26.13;6.53;;;16.90;54.10;;;;;;4994530;28;20140;-63
2023/11/27 04:29:45;;;;;;;13.48;5.22;;;16.90;53.50;;;;;;4997447;28;20056;-66
2023/11/27 04:32:11;;;;;;;15.50;5.78;;;16.80;53.50;;;;;;4993501;28;20130;-66
2023/11/27 04:34:38;;;;;;;24.42;5.60;;;16.80;53.30;;;;;;4993326;28;20043;-69
2023/11/27 04:37:05;;;;;;;16.65;5.47;;;16.70;54.00;;;;;;4996190;28;20048;-67
2023/11/27 04:39:31;;;;;;;22.17;5.68;;;16.70;54.00;;;;;;4997689;28;20742;-65
2023/11/27 04:41:58;;;;;;;18.50;5.10;;;16.70;54.10;;;;;;4993988;28;20137;-63
2023/11/27 04:44:24;;;;;;;25.52;5.32;;;16.60;54.30;;;;;;4992569;28;20069;-63
2023/11/27 04:46:53;;;;;;;23.98;5.07;;;16.60;54.50;;;;;;4994435;28;20406;-64
2023/11/27 04:49:19;;;;;;;19.85;5.28;;;16.50;55.20;;;;;;4992742;28;20534;-64
2023/11/27 04:51:46;;;;;;;23.13;4.75;;;16.40;54.80;;;;;;4993151;28;20091;-67
2023/11/27 04:54:12;;;;;;;18.88;4.22;;;16.40;55.10;;;;;;4994745;28;20512;-68
2023/11/27 04:56:40;;;;;;;21.30;4.57;;;16.30;55.10;;;;;;5000297;28;20050;-68
2023/11/27 04:59:07;;;;;;;17.50;4.57;;;16.30;55.50;;;;;;5005975;28;20053;-67
2023/11/27 05:01:34;;;;;;;25.73;5.03;;;16.20;55.20;;;;;;5001605;28;20055;-64
2023/11/27 05:04:00;;;;;;;28.75;6.68;;;16.20;55.50;;;;;;5001190;28;20443;-68
2023/11/27 05:06:26;;;;;;;25.55;7.72;;;16.10;54.60;;;;;;4996928;28;20589;-66
2023/11/27 05:08:54;;;;;;;30.25;7.47;;;16.10;54.50;;;;;;4996683;28;20085;-67
2023/11/27 05:11:21;;;;;;;33.25;8.13;;;16.00;54.60;;;;;;4999609;28;20499;-64
2023/11/27 05:13:49;;;;;;;38.67;9.55;;;16.10;55.20;;;;;;5006311;28;20052;-68
2023/11/27 05:16:16;;;;;;;32.00;9.45;;;16.00;55.10;;;;;;5002074;28;20063;-65
2023/11/27 05:18:46;;;;;;;46.65;9.43;;;16.00;54.70;;;;;;4996138;28;20176;-68
2023/11/27 05:21:13;;;;;;;47.50;10.95;;;16.00;55.20;;;;;;5000448;28;20152;-65
2023/11/27 05:23:43;;;;;;;39.38;11.23;;;15.90;55.10;;;;;;4995705;28;20099;-66
2023/11/27 05:26:11;;;;;;;42.22;10.57;;;15.90;55.20;;;;;;5000941;28;20052;-68
2023/11/27 05:28:40;;;;;;;43.50;11.50;;;15.90;55.00;;;;;;5000089;28;20057;-67
2023/11/27 05:31:07;;;;;;;53.78;12.15;;;15.90;55.20;;;;;;4998972;28;20547;-66
2023/11/27 05:33:34;;;;;;;50.35;13.23;;;15.90;55.10;;;;;;5005488;28;20544;-69
2023/11/27 05:36:02;;;;;;;43.10;11.80;;;15.80;54.80;;;;;;4997296;28;20118;-68
2023/11/27 05:38:28;;;;;;;48.67;12.15;;;15.80;54.90;;;;;;5001492;28;20495;-68
2023/11/27 05:40:56;;;;;;;59.22;13.30;;;15.80;55.40;;;;;;5001275;28;20462;-68
2023/11/27 05:43:23;;;;;;;48.47;13.70;;;15.80;54.70;;;;;;5000192;28;20074;-70
2023/11/27 05:45:50;;;;;;;49.28;13.02;;;15.70;54.60;;;;;;4998009;28;20063;-69
2023/11/27 05:48:18;;;;;;;66.50;14.10;;;15.80;54.70;;;;;;5004871;28;20082;-69
2023/11/27 05:50:46;;;;;;;66.72;14.18;;;15.70;54.00;;;;;;5007766;28;20141;-70
2023/11/27 05:53:13;;;;;;;48.88;14.65;;;15.70;55.00;;;;;;4996851;28;20068;-67
2023/11/27 05:55:39;;;;;;;53.22;13.80;;;15.70;54.70;;;;;;4997484;28;20048;-68
2023/11/27 05:58:07;;;;;;;46.22;13.18;;;15.70;54.70;;;;;;4999381;28;20061;-64
2023/11/27 06:00:34;;;;;;;67.05;13.63;;;15.70;54.70;;;;;;4995803;28;20085;-64
2023/11/27 06:03:00;;;;;;;62.50;13.68;;;15.60;54.40;;;;;;4999470;28;20119;-65
2023/11/27 06:05:27;;;;;;;55.90;13.43;;;15.70;54.80;;;;;;4998109;28;20540;-66
2023/11/27 06:07:53;;;;;;;65.82;12.57;;;15.60;54.50;;;;;;4992775;28;20089;-67
2023/11/27 06:10:20;;;;;;;64.97;13.13;;;15.60;54.60;;;;;;4996268;28;20059;-65
2023/11/27 06:12:46;;;;;;;45.50;12.48;;;15.60;54.60;;;;;;4995837;28;20122;-64
2023/11/27 06:15:15;;;;;;;63.33;12.57;;;15.60;54.10;;;;;;4996394;28;20062;-66
2023/11/27 06:17:42;;;;;;;55.00;13.23;;;15.60;54.30;;;;;;4997654;28;20070;-65
2023/11/27 06:20:12;;;;;;;83.80;13.38;;;15.60;54.20;;;;;;4993042;28;20048;-64
2023/11/27 06:22:42;;;;;;;62.63;12.95;;;15.60;54.40;;;;;;4996917;28;20101;-62
2023/11/27 06:25:09;;;;;;;52.03;12.60;;;15.60;54.30;;;;;;4996760;28;20073;-68
2023/11/27 06:27:36;;;;;;;55.60;13.98;;;15.60;54.10;;;;;;4995466;28;20062;-63
2023/11/27 06:30:03;;;;;;;50.30;13.10;;;15.50;54.20;;;;;;4996611;28;20148;-63
2023/11/27 06:32:30;;;;;;;56.63;12.65;;;15.50;54.20;;;;;;4997637;28;20044;-65
2023/11/27 06:34:56;;;;;;;65.78;14.18;;;15.40;54.30;;;;;;4993270;28;20157;-63
2023/11/27 06:37:23;;;;;;;57.60;13.52;;;15.40;54.30;;;;;;4995195;28;20602;-65
2023/11/27 06:39:49;;;;;;;59.90;13.73;;;15.40;54.20;;;;;;4996931;28;20100;-70
2023/11/27 06:42:16;;;;;;;59.47;13.93;;;15.40;54.40;;;;;;4998621;28;20103;-66
2023/11/27 06:44:43;;;;;;;68.72;14.25;;;15.40;54.70;;;;;;5003902;28;20598;-62
2023/11/27 06:47:09;;;;;;;53.40;14.02;;;15.30;54.90;;;;;;5004007;28;20055;-65
2023/11/27 06:49:36;;;;;;;55.15;11.93;;;15.30;54.40;;;;;;4998341;28;20055;-62
2023/11/27 06:52:02;;;;;;;54.05;12.63;;;15.30;54.00;;;;;;4994601;28;20142;-65
2023/11/27 06:54:29;;;;;;;42.45;11.00;;;15.20;53.90;;;;;;4999203;28;20061;-62
2023/11/27 06:56:56;;;;;;;39.00;10.23;;;15.20;53.50;;;;;;4997173;28;20084;-64
2023/11/27 06:59:22;;;;;;;42.85;10.60;;;15.20;53.40;;;;;;4998756;28;20071;-55
2023/11/27 07:01:49;;;;;;;33.83;9.82;;;15.20;53.50;;;;;;4994030;28;20092;-61
2023/11/27 07:04:16;;;;;;;29.42;9.50;;;15.20;53.30;;;;;;4994035;28;20142;-61
2023/11/27 07:06:42;;;;;;;27.17;8.25;;;15.20;53.40;;;;;;4996931;28;20127;-61
2023/11/27 07:09:10;;;;;;;32.35;9.23;;;15.20;53.10;;;;;;4994792;28;20538;-63
2023/11/27 07:11:37;;;;;;;36.45;9.07;;;15.20;53.40;;;;;;4994003;28;20052;-62
2023/11/27 07:14:04;;;;;;;32.42;8.20;;;15.10;53.50;;;;;;4994093;28;20086;-65
2023/11/27 07:16:31;;;;;;;54.72;24.67;;;15.10;53.90;;;;;;5000894;28;20096;-63
2023/11/27 07:18:57;;;;;;;26.17;8.23;;;15.10;53.80;;;;;;4997507;28;20095;-66
2023/11/27 07:21:27;;;;;;;33.70;8.20;;;15.00;53.80;;;;;;4996391;28;20072;-67
2023/11/27 07:23:54;;;;;;;31.13;6.40;;;15.00;53.40;;;;;;4995807;28;20101;-70
2023/11/27 07:26:21;;;;;;;22.05;6.63;;;15.00;53.20;;;;;;4993616;28;20082;-67
2023/11/27 07:28:48;;;;;;;33.85;7.00;;;15.00;52.90;;;;;;4998949;28;20061;-61
2023/11/27 07:31:16;;;;;;;18.08;5.38;;;14.90;53.00;;;;;;4998074;28;20257;-67
2023/11/27 07:33:44;;;;;;;21.17;4.32;;;14.90;52.60;;;;;;4999873;28;20119;-67
2023/11/27 07:36:11;;;;;;;13.27;4.35;;;14.90;52.80;;;;;;4996765;28;20072;-68
2023/11/27 07:38:40;;;;;;;13.00;4.22;;;14.90;52.80;;;;;;5003396;28;20152;-65
2023/11/27 07:41:07;;;;;;;12.05;3.38;;;14.90;52.90;;;;;;4994457;28;20436;-67
2023/11/27 07:43:34;;;;;;;14.02;3.63;;;14.90;52.60;;;;;;4993150;28;20091;-63
2023/11/27 07:46:05;;;;;;;17.20;2.95;;;14.80;52.60;;;;;;4996328;28;20536;-67
2023/11/27 07:48:36;;;;;;;10.10;2.70;;;14.90;52.70;;;;;;4997363;28;20186;-65
2023/11/27 07:51:07;;;;;;;7.05;2.50;;;14.80;52.80;;;;;;4997943;28;20189;-67
2023/11/27 07:53:34;;;;;;;9.68;2.50;;;14.90;52.90;;;;;;4999421;28;20070;-67
2023/11/27 07:56:00;;;;;;;7.45;2.30;;;14.90;53.10;;;;;;4996548;28;20061;-66
2023/11/27 07:58:27;;;;;;;7.68;2.58;;;14.80;53.30;;;;;;4999398;28;20063;-63
2023/11/27 08:00:54;;;;;;;7.50;2.10;;;14.90;53.60;;;;;;4999024;28;20095;-65
2023/11/27 08:03:21;;;;;;;4.68;2.05;;;14.80;53.70;;;;;;4997905;28;20074;-65
2023/11/27 08:05:48;;;;;;;6.38;2.00;;;14.80;53.90;;;;;;4998891;28;20523;-70
2023/11/27 08:08:15;;;;;;;8.50;2.50;;;14.80;54.30;;;;;;4999118;28;20530;-64
2023/11/27 08:10:42;;;;;;;13.05;2.78;;;14.80;54.40;;;;;;4997380;28;20068;-61
2023/11/27 08:13:09;;;;;;;9.40;2.63;;;14.70;54.30;;;;;;4998988;28;20521;-65
2023/11/27 08:15:35;;;;;;;6.53;1.70;;;14.70;54.90;;;;;;4998485;28;20435;-66
2023/11/27 08:18:04;;;;;;;5.65;1.90;;;14.70;54.90;;;;;;5001371;28;20603;-67
2023/11/27 08:20:32;;;;;;;11.13;2.13;;;14.60;55.20;;;;;;4999346;28;20065;-64
2023/11/27 08:23:02;;;;;;;4.20;1.55;;;14.70;55.50;;;;;;4998570;28;20438;-63
2023/11/27 08:25:29;;;;;;;3.20;1.52;;;14.60;55.50;;;;;;4999633;28;20055;-62
2023/11/27 08:27:57;;;;;;;6.97;1.60;;;14.60;55.70;;;;;;4998638;28;20497;-66
2023/11/27 08:30:24;;;;;;;6.45;1.20;;;14.60;55.80;;;;;;4998072;28;20065;-63
2023/11/27 08:32:51;;;;;;;10.57;1.80;;;14.50;56.10;;;;;;4998162;28;20067;-65
2023/11/27 08:35:18;;;;;;;6.88;1.67;;;14.50;56.30;;;;;;4998376;28;20067;-66
2023/11/27 08:37:44;;;;;;;10.50;2.22;;;14.50;56.20;;;;;;4996519;28;20069;-65
2023/11/27 08:40:14;;;;;;;8.70;1.85;;;14.50;56.00;;;;;;4999097;28;20061;-64
2023/11/27 08:42:41;;;;;;;7.38;1.98;;;14.50;56.20;;;;;;4997180;28;20520;-66
2023/11/27 08:45:19;;;;;;;8.52;2.28;;;14.50;56.20;;;;;;5004037;28;20619;-65
2023/11/27 08:47:50;;;;;;;4.75;1.92;;;14.40;56.00;;;;;;4998630;28;20062;-60
2023/11/27 08:50:24;;;;;;;5.47;2.47;;;14.50;56.40;;;;;;5000508;28;20065;-67
2023/11/27 08:52:56;;;;;;;9.68;2.60;;;14.50;56.60;;;;;;4995154;28;20058;-63
2023/11/27 08:55:32;;;;;;;7.05;2.70;;;14.50;56.50;;;;;;4998651;28;20064;-65
2023/11/27 08:58:06;;;;;;;9.30;3.97;;;14.50;56.70;;;;;;4996693;28;20422;-63
2023/11/27 09:00:34;;;;;;;8.65;3.88;;;14.40;56.30;;;;;;4994871;28;20080;-65
2023/11/27 09:03:01;;;;;;;13.73;4.40;;;14.40;56.30;;;;;;4998852;28;20130;-63
2023/11/27 09:05:31;;;;;;;15.50;4.28;;;14.40;56.40;;;;;;4997688;28;20090;-64
2023/11/27 09:08:00;;;;;;;12.00;4.03;;;14.40;56.50;;;;;;4996842;28;20156;-63
2023/11/27 09:10:27;;;;;;;14.23;4.05;;;14.40;56.40;;;;;;4995590;28;20069;-64
2023/11/27 09:12:54;;;;;;;9.57;3.92;;;14.40;56.20;;;;;;4997203;28;20087;-62
2023/11/27 09:15:21;;;;;;;13.18;3.90;;;14.40;56.10;;;;;;4996465;28;20073;-64
2023/11/27 09:17:48;;;;;;;13.27;3.80;;;14.40;55.90;;;;;;4997874;28;20557;-62
2023/11/27 09:20:15;;;;;;;10.23;4.07;;;14.30;55.90;;;;;;4997669;28;20072;-61
2023/11/27 09:22:42;;;;;;;14.93;3.35;;;14.30;55.70;;;;;;4996298;28;20597;-62
2023/11/27 09:25:12;;;;;;;11.90;3.53;;;14.30;55.80;;;;;;4995750;28;20107;-65
2023/11/27 09:27:42;;;;;;;11.57;3.75;;;14.30;55.70;;;;;;4996473;28;20069;-65
2023/11/27 09:30:09;;;;;;;9.32;3.47;;;14.30;55.90;;;;;;5004264;28;20060;-64
2023/11/27 09:32:36;;;;;;;13.85;4.00;;;14.30;56.10;;;;;;4996944;28;20105;-62
2023/11/27 09:35:05;;;;;;;13.10;3.38;;;14.30;56.10;;;;;;4999897;28;20073;-68
2023/11/27 09:37:32;;;;;;;11.27;3.25;;;14.30;56.40;;;;;;5001936;28;20078;-62
2023/11/27 09:39:59;;;;;;;10.73;3.55;;;14.30;56.70;;;;;;4996290;28;20076;-64
2023/11/27 09:42:35;;;;;;;5.88;3.13;;;14.30;56.90;;;;;;4995037;28;20063;-62
2023/11/27 09:45:12;;;;;;;3.25;2.40;;;14.30;57.20;;;;;;4996023;28;20084;-64
2023/11/27 09:47:42;;;;;;;9.25;2.78;;;14.30;57.50;;;;;;4995623;28;20580;-62
2023/11/27 09:50:12;;;;;;;6.70;2.90;;;14.30;57.80;;;;;;4993716;28;20072;-64
2023/11/27 09:52:42;;;;;;;9.20;2.78;;;14.20;58.00;;;;;;4995598;28;20062;-64
2023/11/27 09:55:11;;;;;;;12.48;2.60;;;14.20;58.20;;;;;;4994345;28;20432;-61
2023/11/27 09:57:39;;;;;;;10.82;2.50;;;14.20;58.40;;;;;;4995911;28;20103;-63
2023/11/27 10:00:08;;;;;;;9.32;2.53;;;14.20;58.30;;;;;;4996603;28;20403;-64
2023/11/27 10:02:35;;;;;;;9.10;2.47;;;14.20;58.50;;;;;;4992511;28;20152;-65
2023/11/27 10:05:04;;;;;;;8.52;2.70;;;14.10;58.50;;;;;;5000458;28;20531;-65
2023/11/27 10:07:34;;;;;;;11.25;4.05;;;14.10;58.60;;;;;;4993629;28;20080;-63
2023/11/27 10:10:04;;;;;;;8.68;3.40;;;14.10;58.50;;;;;;4999488;28;20066;-64
2023/11/27 10:12:33;;;;;;;9.02;3.20;;;14.10;58.50;;;;;;4998351;28;20098;-63
2023/11/27 10:15:02;;;;;;;11.23;2.60;;;14.10;58.30;;;;;;4993638;28;20530;-63
2023/11/27 10:17:29;;;;;;;5.43;2.30;;;14.20;58.10;;;;;;4997751;28;20065;-64
2023/11/27 10:19:58;;;;;;;7.78;2.38;;;14.20;57.70;;;;;;4996450;28;20085;-61
2023/11/27 10:22:29;;;;;;;5.32;2.30;;;14.10;57.30;;;;;;4993884;28;20069;-63
2023/11/27 10:24:59;;;;;;;14.43;3.45;;;14.10;56.80;;;;;;4995175;28;20112;-60
2023/11/27 10:27:26;;;;;;;11.88;4.60;;;14.10;56.90;;;;;;4996454;28;20524;-63
2023/11/27 10:29:53;;;;;;;10.30;4.32;;;14.20;56.70;;;;;;4994148;28;20585;-65
2023/11/27 10:32:23;;;;;;;10.55;4.25;;;14.20;56.70;;;;;;4996379;28;20064;-65
2023/11/27 10:34:49;;;;;;;10.63;3.95;;;14.20;56.70;;;;;;4995411;28;20552;-65
2023/11/27 10:37:16;;;;;;;19.67;4.60;;;14.10;56.70;;;;;;4995533;28;20065;-63
2023/11/27 10:39:43;;;;;;;7.35;4.15;;;14.10;56.90;;;;;;4996973;28;20079;-64
2023/11/27 10:42:11;;;;;;;8.15;3.92;;;14.20;57.20;;;;;;4999013;28;20072;-68
2023/11/27 10:44:39;;;;;;;6.68;3.22;;;14.20;57.40;;;;;;5002482;28;20103;-61
2023/11/27 10:47:10;;;;;;;8.82;3.33;;;14.10;57.30;;;;;;4994032;28;20159;-61
2023/11/27 10:49:40;;;;;;;7.80;3.15;;;14.10;57.60;;;;;;5002339;28;20076;-64
2023/11/27 10:52:11;;;;;;;30.92;19.73;;;14.10;58.30;;;;;;4996044;28;20116;-65
2023/11/27 10:54:42;;;;;;;22.90;12.88;;;14.10;57.80;;;;;;4996693;28;20077;-63
2023/11/27 10:57:09;;;;;;;7.05;2.13;;;14.10;57.90;;;;;;4996224;28;20070;-66
2023/11/27 10:59:42;;;;;;;6.53;2.33;;;14.10;58.10;;;;;;4992466;28;20560;-61
2023/11/27 11:02:13;;;;;;;4.78;1.55;;;14.10;58.30;;;;;;4995749;28;20068;-66
2023/11/27 11:04:47;;;;;;;5.18;1.73;;;14.10;58.60;;;;;;4997215;28;20561;-64
2023/11/27 11:07:24;;;;;;;8.02;1.50;;;14.10;59.40;;;;;;4995332;28;20072;-67
2023/11/27 11:09:55;;;;;;;3.13;1.48;;;14.10;59.00;;;;;;4994331;28;20074;-66
2023/11/27 11:12:23;;;;;;;4.60;1.30;;;14.10;59.00;;;;;;4996920;28;20489;-61
2023/11/27 11:14:58;;;;;;;11.63;1.80;;;14.10;59.00;;;;;;5000267;28;20492;-64
2023/11/27 11:17:35;;;;;;;3.72;1.13;;;14.00;59.10;;;;;;4996420;28;20066;-64
2023/11/27 11:20:25;;;;;;;14.35;1.60;;;14.10;59.00;;;;;;4994206;28;20104;-65
2023/11/27 11:23:14;;;;;;;7.00;1.45;;;14.00;58.70;;;;;;4996211;28;20096;-66
2023/11/27 11:25:48;;;;;;;8.60;1.63;;;14.00;59.00;;;;;;4994819;28;20510;-61
2023/11/27 11:28:42;;;;;;;11.45;1.60;;;14.00;58.90;;;;;;4995269;28;20429;-67
2023/11/27 11:31:09;;;;;;;6.53;1.35;;;14.10;58.80;;;;;;4994207;28;20062;-64
2023/11/27 11:33:36;;;;;;;5.05;1.80;;;14.00;58.60;;;;;;4998586;28;20544;-63
2023/11/27 11:36:02;;;;;;;;;;;14.00;58.30;;;;;;4998096;28;20157;-59
2023/11/27 11:38:31;;;;;;;9.77;2.10;;;14.10;58.20;;;;;;4996119;28;19946;-65
2023/11/27 11:40:57;;;;;;;8.38;2.00;;;14.10;57.90;;;;;;4995258;28;20065;-61
2023/11/27 11:43:26;;;;;;;6.78;1.60;;;14.00;57.40;;;;;;4996183;28;20086;-63
2023/11/27 11:45:55;;;;;;;9.43;1.90;;;14.00;56.80;;;;;;4993785;28;20640;-62
2023/11/27 11:48:38;;;;;;;3.95;1.30;;;13.90;56.80;;;;;;4991792;28;20063;-66
2023/11/27 11:51:15;;;;;;;6.97;1.40;;;14.00;56.70;;;;;;4992302;28;20084;-61
2023/11/27 11:53:43;;;;;;;8.32;1.67;;;14.00;56.90;;;;;;4992572;28;20068;-62
2023/11/27 11:56:20;;;;;;;9.68;1.75;;;14.00;56.90;;;;;;4993743;28;20064;-61
2023/11/27 11:58:57;;;;;;;3.08;1.52;;;14.00;57.00;;;;;;4994457;28;20085;-61
2023/11/27 12:01:32;;;;;;;3.03;1.33;;;13.90;57.00;;;;;;4993824;28;20125;-61
2023/11/27 12:04:07;;;;;;;6.72;1.48;;;13.90;57.20;;;;;;4997708;28;20111;-60
2023/11/27 12:06:35;;;;;;;4.95;1.52;;;13.90;57.10;;;;;;4994524;28;20139;-61
2023/11/27 12:09:03;;;;;;;5.10;1.65;;;14.00;57.10;;;;;;4993424;28;20096;-62
2023/11/27 12:11:31;;;;;;;9.07;1.90;;;14.00;57.40;;;;;;4996922;28;20065;-65
2023/11/27 12:13:58;;;;;;;5.75;1.23;;;13.90;56.70;;;;;;4995686;28;20064;-64
2023/11/27 12:16:25;;;;;;;6.72;1.30;;;13.90;56.60;;;;;;4996758;28;20428;-64
2023/11/27 12:18:51;;;;;;;9.23;1.30;;;14.00;56.70;;;;;;4995345;28;20089;-61
2023/11/27 12:21:23;;;;;;;5.25;1.33;;;14.00;56.60;;;;;;4998296;28;20123;-61
2023/11/27 12:23:53;;;;;;;4.65;1.20;;;14.00;56.40;;;;;;4995365;28;20174;-57
2023/11/27 12:26:23;;;;;;;4.63;1.25;;;14.00;56.40;;;;;;4997049;28;20409;-61
2023/11/27 12:28:51;;;;;;;3.05;0.90;;;13.90;56.00;;;;;;4994407;28;20492;-61
2023/11/27 12:31:19;;;;;;;3.00;1.00;;;13.90;55.40;;;;;;4991038;28;20512;-62
2023/11/27 12:33:48;;;;;;;8.05;1.10;;;13.90;55.40;;;;;;4994359;28;20092;-62
2023/11/27 12:36:20;;;;;;;4.47;1.08;;;13.90;54.90;;;;;;5000098;28;20096;-61
2023/11/27 12:38:52;;;;;;;5.43;1.17;;;13.90;54.70;;;;;;5002010;28;20467;-61
2023/11/27 12:41:29;;;;;;;5.60;1.38;;;13.90;54.70;;;;;;4997542;28;20068;-60
2023/11/27 12:44:16;;;;;;;5.60;1.50;;;13.90;54.40;;;;;;4999137;28;20309;-62